Patrick Air Force Base
KCOF : rendu visible

Aérodrome :











RETROUVEZ-NOUS SUR...

 
LOGIN :

S'inscrire | Disclaimer

   EN    FR    IT 

 









Légende :    VFR   VFR Marginal   IFR   IFR Intensif   IFR Très Intensif
Visi : 
Plafond : 
>= 8 km
>= 3000ft
5 à 8 km
1000 à 3000 ft
1500m à 5 km
500 à 1000 ft
800 à 1500m
200 à 500 ft
< 800m
< 200 ft
Symboles :   Orages  Brouillard  Fortes neiges  Fortes précipitations  Vent > 20 kt






- Altitude de l'aérodrome : 8 ft


KCOF - Patrick Air Force Base

DERNIER METAR :
  • 100656Z AUTO 00000KT 10SM CLR 20/20 A3011 RMK AO2 SLP201 T01950195 $

METARs EXPIRÉS :
  • 100556Z AUTO 00000KT 10SM CLR 20/20 A3011 RMK AO2 SLP201 T01960196 10224 20196 58004 $
  • 100456Z AUTO 00000KT 10SM CLR 20/20 A3012 RMK AO2 SLP204 T02010201 402580161 $

TAF TAF KCOF
Valide du 10 à 03h jusqu'au 11 à 09h UTC


100300Z 1003/1109 18006KT 9999 SCT020 QNH3009INS
BECMG 1011/1012 16010KT 9999 SCT015 QNH3005INS
TEMPO 1011/1016 BKN015
BECMG 1105/1106 20008KT 9999 BKN010 QNH3010INS TX26/1018Z TN20/1009Z LAST NO AMDS AFT 1005 NEXT 1011



MET'MAP, la Météo Aéronautique d'un coup d'oeil ! - Copyright ORBIFLY Décembre 2007 - Disclaimer

ORBIFLY MET'MAP TEAM :

Programmation & Développement : Alexandra Zaïnal
Sur une idée originale de : Baudouin d'Aumeries
Assistance à la programmation : Marc-Olivier Méhu
Soutien technique & logistique : Manuel Goepfert

Contact : metmap@orbifly.com




SOURCES & CREDITS :

   NOAA       Earth
Advisory